sensor_id;sensor_type;location;lat;lon;timestamp;P1;durP1;ratioP1;P2;durP2;ratioP2
18789;SDS011;9523;42.650;23.386;2023-08-30T00:00:45;13.37;;;5.63;;
18789;SDS011;9523;42.650;23.386;2023-08-30T00:03:12;9.43;;;5.43;;
18789;SDS011;9523;42.650;23.386;2023-08-30T00:05:39;8.05;;;5.75;;
18789;SDS011;9523;42.650;23.386;2023-08-30T00:08:05;5.90;;;5.20;;
18789;SDS011;9523;42.650;23.386;2023-08-30T00:10:32;10.90;;;6.57;;
18789;SDS011;9523;42.650;23.386;2023-08-30T00:13:00;7.97;;;5.93;;
18789;SDS011;9523;42.650;23.386;2023-08-30T00:15:27;8.52;;;6.03;;
18789;SDS011;9523;42.650;23.386;2023-08-30T00:17:53;7.72;;;5.80;;
18789;SDS011;9523;42.650;23.386;2023-08-30T00:20:20;10.57;;;5.80;;
18789;SDS011;9523;42.650;23.386;2023-08-30T00:22:47;8.93;;;5.85;;
18789;SDS011;9523;42.650;23.386;2023-08-30T00:25:13;8.20;;;5.28;;
18789;SDS011;9523;42.650;23.386;2023-08-30T00:27:40;8.47;;;5.80;;
18789;SDS011;9523;42.650;23.386;2023-08-30T00:30:09;9.02;;;5.22;;
18789;SDS011;9523;42.650;23.386;2023-08-30T00:32:35;8.68;;;5.60;;
18789;SDS011;9523;42.650;23.386;2023-08-30T00:35:02;7.07;;;5.18;;
18789;SDS011;9523;42.650;23.386;2023-08-30T00:37:28;8.18;;;4.70;;
18789;SDS011;9523;42.650;23.386;2023-08-30T00:39:55;9.60;;;4.93;;
18789;SDS011;9523;42.650;23.386;2023-08-30T00:42:21;6.53;;;4.65;;
18789;SDS011;9523;42.650;23.386;2023-08-30T00:44:48;6.60;;;4.85;;
18789;SDS011;9523;42.650;23.386;2023-08-30T00:47:16;7.50;;;4.85;;
18789;SDS011;9523;42.650;23.386;2023-08-30T00:49:42;8.13;;;4.63;;
18789;SDS011;9523;42.650;23.386;2023-08-30T00:52:09;6.25;;;3.97;;
18789;SDS011;9523;42.650;23.386;2023-08-30T00:54:37;8.10;;;4.95;;
18789;SDS011;9523;42.650;23.386;2023-08-30T00:57:04;7.30;;;4.90;;
18789;SDS011;9523;42.650;23.386;2023-08-30T00:59:31;7.20;;;4.27;;
18789;SDS011;9523;42.650;23.386;2023-08-30T01:01:58;7.67;;;4.47;;
18789;SDS011;9523;42.650;23.386;2023-08-30T01:04:27;5.70;;;4.03;;
18789;SDS011;9523;42.650;23.386;2023-08-30T01:06:54;7.53;;;4.57;;
18789;SDS011;9523;42.650;23.386;2023-08-30T01:09:20;6.03;;;4.40;;
18789;SDS011;9523;42.650;23.386;2023-08-30T01:11:48;6.65;;;4.55;;
18789;SDS011;9523;42.650;23.386;2023-08-30T01:14:18;7.20;;;4.32;;
18789;SDS011;9523;42.650;23.386;2023-08-30T01:16:45;6.40;;;4.50;;
18789;SDS011;9523;42.650;23.386;2023-08-30T01:19:16;8.18;;;4.70;;
18789;SDS011;9523;42.650;23.386;2023-08-30T01:21:48;5.40;;;4.30;;
18789;SDS011;9523;42.650;23.386;2023-08-30T01:24:19;7.97;;;5.00;;
18789;SDS011;9523;42.650;23.386;2023-08-30T01:29:22;8.52;;;5.45;;
18789;SDS011;9523;42.650;23.386;2023-08-30T01:31:49;7.07;;;5.15;;
18789;SDS011;9523;42.650;23.386;2023-08-30T01:34:17;6.18;;;4.30;;
18789;SDS011;9523;42.650;23.386;2023-08-30T01:36:44;7.95;;;4.80;;
18789;SDS011;9523;42.650;23.386;2023-08-30T01:39:10;6.82;;;5.15;;
18789;SDS011;9523;42.650;23.386;2023-08-30T01:41:38;6.82;;;4.63;;
18789;SDS011;9523;42.650;23.386;2023-08-30T01:44:05;6.20;;;4.30;;
18789;SDS011;9523;42.650;23.386;2023-08-30T01:46:34;7.10;;;4.40;;
18789;SDS011;9523;42.650;23.386;2023-08-30T01:49:01;8.13;;;4.90;;
18789;SDS011;9523;42.650;23.386;2023-08-30T01:51:28;10.33;;;5.23;;
18789;SDS011;9523;42.650;23.386;2023-08-30T01:53:55;8.10;;;5.30;;
18789;SDS011;9523;42.650;23.386;2023-08-30T01:56:22;7.83;;;5.60;;
18789;SDS011;9523;42.650;23.386;2023-08-30T01:58:48;3.10;;;1.23;;
18789;SDS011;9523;42.650;23.386;2023-08-30T02:01:15;0.00;;;0.00;;
18789;SDS011;9523;42.650;23.386;2023-08-30T02:03:44;0.00;;;0.00;;
18789;SDS011;9523;42.650;23.386;2023-08-30T02:06:11;0.00;;;0.00;;
18789;SDS011;9523;42.650;23.386;2023-08-30T02:08:41;0.00;;;0.00;;
18789;SDS011;9523;42.650;23.386;2023-08-30T02:11:11;0.00;;;0.00;;
18789;SDS011;9523;42.650;23.386;2023-08-30T02:13:39;0.00;;;0.00;;
18789;SDS011;9523;42.650;23.386;2023-08-30T02:16:08;0.00;;;0.00;;
18789;SDS011;9523;42.650;23.386;2023-08-30T02:18:35;0.00;;;0.00;;
18789;SDS011;9523;42.650;23.386;2023-08-30T02:21:03;0.00;;;0.00;;
18789;SDS011;9523;42.650;23.386;2023-08-30T02:23:30;0.00;;;0.00;;
18789;SDS011;9523;42.650;23.386;2023-08-30T02:25:56;0.00;;;0.00;;
18789;SDS011;9523;42.650;23.386;2023-08-30T02:28:23;0.00;;;0.00;;
18789;SDS011;9523;42.650;23.386;2023-08-30T02:30:49;0.00;;;0.00;;
18789;SDS011;9523;42.650;23.386;2023-08-30T02:33:16;0.00;;;0.00;;
18789;SDS011;9523;42.650;23.386;2023-08-30T02:35:42;0.00;;;0.00;;
18789;SDS011;9523;42.650;23.386;2023-08-30T02:38:11;0.00;;;0.00;;
18789;SDS011;9523;42.650;23.386;2023-08-30T02:40:37;0.00;;;0.00;;
18789;SDS011;9523;42.650;23.386;2023-08-30T02:43:03;0.27;;;0.27;;
18789;SDS011;9523;42.650;23.386;2023-08-30T02:45:30;0.00;;;0.00;;
18789;SDS011;9523;42.650;23.386;2023-08-30T02:47:57;0.00;;;0.00;;
18789;SDS011;9523;42.650;23.386;2023-08-30T02:50:23;0.00;;;0.00;;
18789;SDS011;9523;42.650;23.386;2023-08-30T02:52:50;0.00;;;0.00;;
18789;SDS011;9523;42.650;23.386;2023-08-30T02:55:18;0.00;;;0.00;;
18789;SDS011;9523;42.650;23.386;2023-08-30T02:57:45;0.00;;;0.00;;
18789;SDS011;9523;42.650;23.386;2023-08-30T03:00:12;0.00;;;0.00;;
18789;SDS011;9523;42.650;23.386;2023-08-30T03:02:39;0.00;;;0.00;;
18789;SDS011;9523;42.650;23.386;2023-08-30T03:05:06;0.00;;;0.00;;
18789;SDS011;9523;42.650;23.386;2023-08-30T03:07:32;0.00;;;0.00;;
18789;SDS011;9523;42.650;23.386;2023-08-30T03:09:59;0.43;;;0.43;;
18789;SDS011;9523;42.650;23.386;2023-08-30T03:12:27;0.00;;;0.00;;
18789;SDS011;9523;42.650;23.386;2023-08-30T03:14:55;0.00;;;0.00;;
18789;SDS011;9523;42.650;23.386;2023-08-30T03:17:21;1.63;;;1.63;;
18789;SDS011;9523;42.650;23.386;2023-08-30T03:19:51;0.00;;;0.00;;
18789;SDS011;9523;42.650;23.386;2023-08-30T03:22:18;0.00;;;0.00;;
18789;SDS011;9523;42.650;23.386;2023-08-30T03:24:44;0.00;;;0.00;;
18789;SDS011;9523;42.650;23.386;2023-08-30T03:27:11;0.00;;;0.00;;
18789;SDS011;9523;42.650;23.386;2023-08-30T03:29:39;0.13;;;0.13;;
18789;SDS011;9523;42.650;23.386;2023-08-30T03:32:05;0.00;;;0.00;;
18789;SDS011;9523;42.650;23.386;2023-08-30T03:34:32;0.00;;;0.00;;
18789;SDS011;9523;42.650;23.386;2023-08-30T03:36:58;0.67;;;0.67;;
18789;SDS011;9523;42.650;23.386;2023-08-30T03:39:25;0.00;;;0.00;;
18789;SDS011;9523;42.650;23.386;2023-08-30T03:41:51;0.00;;;0.00;;
18789;SDS011;9523;42.650;23.386;2023-08-30T03:44:18;0.00;;;0.00;;
18789;SDS011;9523;42.650;23.386;2023-08-30T03:46:46;0.00;;;0.00;;
18789;SDS011;9523;42.650;23.386;2023-08-30T03:49:12;0.00;;;0.00;;
18789;SDS011;9523;42.650;23.386;2023-08-30T03:51:39;2.30;;;1.10;;
18789;SDS011;9523;42.650;23.386;2023-08-30T03:54:05;17.27;;;2.80;;
18789;SDS011;9523;42.650;23.386;2023-08-30T03:56:33;0.00;;;0.00;;
18789;SDS011;9523;42.650;23.386;2023-08-30T03:59:00;1.93;;;1.90;;
18789;SDS011;9523;42.650;23.386;2023-08-30T04:01:26;1.67;;;1.47;;
18789;SDS011;9523;42.650;23.386;2023-08-30T04:03:54;0.00;;;0.00;;
18789;SDS011;9523;42.650;23.386;2023-08-30T04:06:20;0.00;;;0.00;;
18789;SDS011;9523;42.650;23.386;2023-08-30T04:08:48;0.00;;;0.00;;
18789;SDS011;9523;42.650;23.386;2023-08-30T04:11:14;0.10;;;0.10;;
18789;SDS011;9523;42.650;23.386;2023-08-30T04:13:41;0.00;;;0.00;;
18789;SDS011;9523;42.650;23.386;2023-08-30T04:16:07;0.00;;;0.00;;
18789;SDS011;9523;42.650;23.386;2023-08-30T04:18:34;0.00;;;0.00;;
18789;SDS011;9523;42.650;23.386;2023-08-30T04:21:02;0.00;;;0.00;;
18789;SDS011;9523;42.650;23.386;2023-08-30T04:23:28;0.00;;;0.00;;
18789;SDS011;9523;42.650;23.386;2023-08-30T04:25:55;1.27;;;1.27;;
18789;SDS011;9523;42.650;23.386;2023-08-30T04:28:21;0.27;;;0.27;;
18789;SDS011;9523;42.650;23.386;2023-08-30T04:30:48;0.00;;;0.00;;
18789;SDS011;9523;42.650;23.386;2023-08-30T04:33:14;0.30;;;0.30;;
18789;SDS011;9523;42.650;23.386;2023-08-30T04:35:41;0.00;;;0.00;;
18789;SDS011;9523;42.650;23.386;2023-08-30T04:38:09;0.53;;;0.53;;
18789;SDS011;9523;42.650;23.386;2023-08-30T04:40:35;0.00;;;0.00;;
18789;SDS011;9523;42.650;23.386;2023-08-30T04:43:02;0.30;;;0.27;;
18789;SDS011;9523;42.650;23.386;2023-08-30T04:45:28;0.00;;;0.00;;
18789;SDS011;9523;42.650;23.386;2023-08-30T04:47:55;0.00;;;0.00;;
18789;SDS011;9523;42.650;23.386;2023-08-30T04:50:21;0.83;;;0.83;;
18789;SDS011;9523;42.650;23.386;2023-08-30T04:52:48;0.00;;;0.00;;
18789;SDS011;9523;42.650;23.386;2023-08-30T04:55:16;0.97;;;0.97;;
18789;SDS011;9523;42.650;23.386;2023-08-30T04:57:42;0.00;;;0.00;;
18789;SDS011;9523;42.650;23.386;2023-08-30T05:00:10;0.00;;;0.00;;
18789;SDS011;9523;42.650;23.386;2023-08-30T05:02:37;0.10;;;0.10;;
18789;SDS011;9523;42.650;23.386;2023-08-30T05:05:04;3.00;;;1.40;;
18789;SDS011;9523;42.650;23.386;2023-08-30T05:07:30;0.00;;;0.00;;
18789;SDS011;9523;42.650;23.386;2023-08-30T05:09:57;0.00;;;0.00;;
18789;SDS011;9523;42.650;23.386;2023-08-30T05:12:25;0.00;;;0.00;;
18789;SDS011;9523;42.650;23.386;2023-08-30T05:14:51;0.00;;;0.00;;
18789;SDS011;9523;42.650;23.386;2023-08-30T05:17:18;0.00;;;0.00;;
18789;SDS011;9523;42.650;23.386;2023-08-30T05:19:44;0.00;;;0.00;;
18789;SDS011;9523;42.650;23.386;2023-08-30T05:22:11;0.00;;;0.00;;
18789;SDS011;9523;42.650;23.386;2023-08-30T05:24:38;0.00;;;0.00;;
18789;SDS011;9523;42.650;23.386;2023-08-30T05:27:04;0.50;;;0.50;;
18789;SDS011;9523;42.650;23.386;2023-08-30T05:29:33;0.00;;;0.00;;
18789;SDS011;9523;42.650;23.386;2023-08-30T05:32:00;0.00;;;0.00;;
18789;SDS011;9523;42.650;23.386;2023-08-30T05:34:26;0.10;;;0.10;;
18789;SDS011;9523;42.650;23.386;2023-08-30T05:36:53;0.00;;;0.00;;
18789;SDS011;9523;42.650;23.386;2023-08-30T05:39:20;0.10;;;0.10;;
18789;SDS011;9523;42.650;23.386;2023-08-30T05:41:47;0.10;;;0.10;;
18789;SDS011;9523;42.650;23.386;2023-08-30T05:44:17;0.00;;;0.00;;
18789;SDS011;9523;42.650;23.386;2023-08-30T05:46:45;0.00;;;0.00;;
18789;SDS011;9523;42.650;23.386;2023-08-30T05:49:11;0.00;;;0.00;;
18789;SDS011;9523;42.650;23.386;2023-08-30T05:51:38;0.00;;;0.00;;
18789;SDS011;9523;42.650;23.386;2023-08-30T05:54:04;0.00;;;0.00;;
18789;SDS011;9523;42.650;23.386;2023-08-30T05:56:31;0.00;;;0.00;;
18789;SDS011;9523;42.650;23.386;2023-08-30T05:58:57;0.00;;;0.00;;
18789;SDS011;9523;42.650;23.386;2023-08-30T06:01:24;0.00;;;0.00;;
18789;SDS011;9523;42.650;23.386;2023-08-30T06:03:52;2.30;;;1.43;;
18789;SDS011;9523;42.650;23.386;2023-08-30T06:06:19;0.30;;;0.30;;
18789;SDS011;9523;42.650;23.386;2023-08-30T06:08:46;0.77;;;0.77;;
18789;SDS011;9523;42.650;23.386;2023-08-30T06:11:12;0.00;;;0.00;;
18789;SDS011;9523;42.650;23.386;2023-08-30T06:13:40;0.00;;;0.00;;
18789;SDS011;9523;42.650;23.386;2023-08-30T06:16:06;0.00;;;0.00;;
18789;SDS011;9523;42.650;23.386;2023-08-30T06:18:36;0.00;;;0.00;;
18789;SDS011;9523;42.650;23.386;2023-08-30T06:21:04;0.10;;;0.10;;
18789;SDS011;9523;42.650;23.386;2023-08-30T06:23:32;0.00;;;0.00;;
18789;SDS011;9523;42.650;23.386;2023-08-30T06:25:59;0.30;;;0.30;;
18789;SDS011;9523;42.650;23.386;2023-08-30T06:28:26;0.00;;;0.00;;
18789;SDS011;9523;42.650;23.386;2023-08-30T06:30:52;0.00;;;0.00;;
18789;SDS011;9523;42.650;23.386;2023-08-30T06:33:19;0.00;;;0.00;;
18789;SDS011;9523;42.650;23.386;2023-08-30T06:35:47;0.00;;;0.00;;
18789;SDS011;9523;42.650;23.386;2023-08-30T06:38:15;0.00;;;0.00;;
18789;SDS011;9523;42.650;23.386;2023-08-30T06:40:43;0.00;;;0.00;;
18789;SDS011;9523;42.650;23.386;2023-08-30T06:43:09;0.00;;;0.00;;
18789;SDS011;9523;42.650;23.386;2023-08-30T06:45:36;0.80;;;0.67;;
18789;SDS011;9523;42.650;23.386;2023-08-30T06:48:03;0.00;;;0.00;;
18789;SDS011;9523;42.650;23.386;2023-08-30T06:50:30;0.00;;;0.00;;
18789;SDS011;9523;42.650;23.386;2023-08-30T06:52:56;0.30;;;0.23;;
18789;SDS011;9523;42.650;23.386;2023-08-30T06:55:24;16.77;;;1.45;;
18789;SDS011;9523;42.650;23.386;2023-08-30T06:57:51;0.60;;;0.60;;
18789;SDS011;9523;42.650;23.386;2023-08-30T07:00:17;0.10;;;0.10;;
18789;SDS011;9523;42.650;23.386;2023-08-30T07:02:44;0.00;;;0.00;;
18789;SDS011;9523;42.650;23.386;2023-08-30T07:05:11;0.00;;;0.00;;
18789;SDS011;9523;42.650;23.386;2023-08-30T07:07:37;36.88;;;1.27;;
18789;SDS011;9523;42.650;23.386;2023-08-30T07:10:04;0.00;;;0.00;;
18789;SDS011;9523;42.650;23.386;2023-08-30T07:12:32;0.00;;;0.00;;
18789;SDS011;9523;42.650;23.386;2023-08-30T07:14:59;0.00;;;0.00;;
18789;SDS011;9523;42.650;23.386;2023-08-30T07:17:25;0.00;;;0.00;;
18789;SDS011;9523;42.650;23.386;2023-08-30T07:19:52;0.00;;;0.00;;
18789;SDS011;9523;42.650;23.386;2023-08-30T07:22:18;0.05;;;0.05;;
18789;SDS011;9523;42.650;23.386;2023-08-30T07:24:45;0.00;;;0.00;;
18789;SDS011;9523;42.650;23.386;2023-08-30T07:27:12;0.20;;;0.20;;
18789;SDS011;9523;42.650;23.386;2023-08-30T07:29:40;0.00;;;0.00;;
18789;SDS011;9523;42.650;23.386;2023-08-30T07:32:06;0.00;;;0.00;;
18789;SDS011;9523;42.650;23.386;2023-08-30T07:34:33;0.00;;;0.00;;
18789;SDS011;9523;42.650;23.386;2023-08-30T07:36:59;0.00;;;0.00;;
18789;SDS011;9523;42.650;23.386;2023-08-30T07:39:26;0.00;;;0.00;;
18789;SDS011;9523;42.650;23.386;2023-08-30T07:41:53;0.25;;;0.25;;
18789;SDS011;9523;42.650;23.386;2023-08-30T07:44:19;0.00;;;0.00;;
18789;SDS011;9523;42.650;23.386;2023-08-30T07:46:47;0.00;;;0.00;;
18789;SDS011;9523;42.650;23.386;2023-08-30T07:49:14;0.08;;;0.08;;
18789;SDS011;9523;42.650;23.386;2023-08-30T07:51:40;0.90;;;0.90;;
18789;SDS011;9523;42.650;23.386;2023-08-30T07:54:07;0.00;;;0.00;;
18789;SDS011;9523;42.650;23.386;2023-08-30T07:56:34;0.00;;;0.00;;
18789;SDS011;9523;42.650;23.386;2023-08-30T07:59:01;0.65;;;0.65;;
18789;SDS011;9523;42.650;23.386;2023-08-30T08:01:27;0.10;;;0.10;;
18789;SDS011;9523;42.650;23.386;2023-08-30T08:03:55;0.10;;;0.10;;
18789;SDS011;9523;42.650;23.386;2023-08-30T08:06:22;0.00;;;0.00;;
18789;SDS011;9523;42.650;23.386;2023-08-30T08:08:48;0.00;;;0.00;;
18789;SDS011;9523;42.650;23.386;2023-08-30T08:11:15;0.15;;;0.08;;
18789;SDS011;9523;42.650;23.386;2023-08-30T08:13:41;0.10;;;0.10;;
18789;SDS011;9523;42.650;23.386;2023-08-30T08:16:08;0.00;;;0.00;;
18789;SDS011;9523;42.650;23.386;2023-08-30T08:18:35;0.00;;;0.00;;
18789;SDS011;9523;42.650;23.386;2023-08-30T08:21:04;0.08;;;0.08;;
18789;SDS011;9523;42.650;23.386;2023-08-30T08:23:30;3.35;;;1.65;;
18789;SDS011;9523;42.650;23.386;2023-08-30T08:25:57;6.68;;;4.65;;
18789;SDS011;9523;42.650;23.386;2023-08-30T08:28:24;6.55;;;4.47;;
18789;SDS011;9523;42.650;23.386;2023-08-30T08:30:51;5.97;;;4.47;;
18789;SDS011;9523;42.650;23.386;2023-08-30T08:33:18;5.63;;;4.05;;
18789;SDS011;9523;42.650;23.386;2023-08-30T08:35:45;6.60;;;4.38;;
18789;SDS011;9523;42.650;23.386;2023-08-30T08:38:13;9.48;;;4.57;;
18789;SDS011;9523;42.650;23.386;2023-08-30T08:40:39;7.65;;;3.70;;
18789;SDS011;9523;42.650;23.386;2023-08-30T08:43:06;6.75;;;3.60;;
18789;SDS011;9523;42.650;23.386;2023-08-30T08:45:34;6.95;;;3.70;;
18789;SDS011;9523;42.650;23.386;2023-08-30T08:48:01;8.40;;;3.67;;
18789;SDS011;9523;42.650;23.386;2023-08-30T08:50:28;6.95;;;4.03;;
18789;SDS011;9523;42.650;23.386;2023-08-30T08:52:55;4.65;;;2.85;;
18789;SDS011;9523;42.650;23.386;2023-08-30T08:55:23;8.77;;;6.20;;
18789;SDS011;9523;42.650;23.386;2023-08-30T08:57:51;5.95;;;3.58;;
18789;SDS011;9523;42.650;23.386;2023-08-30T09:00:19;3.63;;;2.97;;
18789;SDS011;9523;42.650;23.386;2023-08-30T09:02:45;4.70;;;3.40;;
18789;SDS011;9523;42.650;23.386;2023-08-30T09:05:12;3.70;;;2.63;;
18789;SDS011;9523;42.650;23.386;2023-08-30T09:07:39;3.10;;;2.42;;
18789;SDS011;9523;42.650;23.386;2023-08-30T09:10:07;5.35;;;2.55;;
18789;SDS011;9523;42.650;23.386;2023-08-30T09:12:35;6.68;;;2.88;;
18789;SDS011;9523;42.650;23.386;2023-08-30T09:15:01;4.50;;;2.80;;
18789;SDS011;9523;42.650;23.386;2023-08-30T09:17:35;6.32;;;2.92;;
18789;SDS011;9523;42.650;23.386;2023-08-30T09:20:06;5.38;;;2.50;;
18789;SDS011;9523;42.650;23.386;2023-08-30T09:22:35;6.78;;;3.60;;
18789;SDS011;9523;42.650;23.386;2023-08-30T09:25:02;6.22;;;3.42;;
18789;SDS011;9523;42.650;23.386;2023-08-30T09:27:31;3.47;;;2.72;;
18789;SDS011;9523;42.650;23.386;2023-08-30T09:30:00;3.65;;;2.67;;
18789;SDS011;9523;42.650;23.386;2023-08-30T09:32:27;3.97;;;2.03;;
18789;SDS011;9523;42.650;23.386;2023-08-30T09:34:53;4.60;;;2.80;;
18789;SDS011;9523;42.650;23.386;2023-08-30T09:37:20;3.88;;;2.50;;
18789;SDS011;9523;42.650;23.386;2023-08-30T09:39:48;4.43;;;2.65;;
18789;SDS011;9523;42.650;23.386;2023-08-30T09:42:15;4.82;;;2.90;;
18789;SDS011;9523;42.650;23.386;2023-08-30T09:44:42;5.43;;;3.08;;
18789;SDS011;9523;42.650;23.386;2023-08-30T09:47:12;4.32;;;2.78;;
18789;SDS011;9523;42.650;23.386;2023-08-30T09:49:40;6.57;;;3.55;;
18789;SDS011;9523;42.650;23.386;2023-08-30T09:52:08;3.75;;;2.92;;
18789;SDS011;9523;42.650;23.386;2023-08-30T09:54:35;4.70;;;2.67;;
18789;SDS011;9523;42.650;23.386;2023-08-30T09:57:06;6.07;;;3.33;;
18789;SDS011;9523;42.650;23.386;2023-08-30T09:59:33;4.82;;;3.00;;
18789;SDS011;9523;42.650;23.386;2023-08-30T10:01:59;5.65;;;3.00;;
18789;SDS011;9523;42.650;23.386;2023-08-30T10:04:28;6.40;;;3.55;;
18789;SDS011;9523;42.650;23.386;2023-08-30T10:06:54;5.03;;;3.65;;
18789;SDS011;9523;42.650;23.386;2023-08-30T10:09:22;5.63;;;3.38;;
18789;SDS011;9523;42.650;23.386;2023-08-30T10:11:50;5.35;;;2.97;;
18789;SDS011;9523;42.650;23.386;2023-08-30T10:14:17;5.30;;;3.38;;
18789;SDS011;9523;42.650;23.386;2023-08-30T10:16:44;4.75;;;3.05;;
18789;SDS011;9523;42.650;23.386;2023-08-30T10:19:11;5.47;;;2.97;;
18789;SDS011;9523;42.650;23.386;2023-08-30T10:21:40;3.30;;;2.40;;
18789;SDS011;9523;42.650;23.386;2023-08-30T10:24:07;5.53;;;2.88;;
18789;SDS011;9523;42.650;23.386;2023-08-30T10:26:35;3.78;;;2.90;;
18789;SDS011;9523;42.650;23.386;2023-08-30T10:29:06;3.33;;;2.90;;
18789;SDS011;9523;42.650;23.386;2023-08-30T10:31:35;6.07;;;3.22;;
18789;SDS011;9523;42.650;23.386;2023-08-30T10:34:11;5.72;;;3.20;;
18789;SDS011;9523;42.650;23.386;2023-08-30T10:36:38;4.50;;;2.80;;
18789;SDS011;9523;42.650;23.386;2023-08-30T10:39:11;4.78;;;3.00;;
18789;SDS011;9523;42.650;23.386;2023-08-30T10:41:37;4.25;;;2.53;;
18789;SDS011;9523;42.650;23.386;2023-08-30T10:44:04;3.40;;;2.67;;
18789;SDS011;9523;42.650;23.386;2023-08-30T10:46:33;5.90;;;3.38;;
18789;SDS011;9523;42.650;23.386;2023-08-30T10:49:11;4.38;;;3.03;;
18789;SDS011;9523;42.650;23.386;2023-08-30T10:51:39;4.10;;;2.97;;
18789;SDS011;9523;42.650;23.386;2023-08-30T10:54:14;6.35;;;3.33;;
18789;SDS011;9523;42.650;23.386;2023-08-30T10:56:47;5.63;;;3.40;;
18789;SDS011;9523;42.650;23.386;2023-08-30T10:59:17;4.88;;;3.35;;
18789;SDS011;9523;42.650;23.386;2023-08-30T11:01:45;4.65;;;3.13;;
18789;SDS011;9523;42.650;23.386;2023-08-30T11:04:12;7.68;;;3.78;;
18789;SDS011;9523;42.650;23.386;2023-08-30T11:06:40;5.03;;;3.08;;
18789;SDS011;9523;42.650;23.386;2023-08-30T11:09:07;4.68;;;3.20;;
18789;SDS011;9523;42.650;23.386;2023-08-30T11:11:35;5.60;;;3.45;;
18789;SDS011;9523;42.650;23.386;2023-08-30T11:14:06;5.00;;;3.40;;
18789;SDS011;9523;42.650;23.386;2023-08-30T11:16:33;7.95;;;3.60;;
18789;SDS011;9523;42.650;23.386;2023-08-30T11:19:00;4.68;;;3.25;;
18789;SDS011;9523;42.650;23.386;2023-08-30T11:21:26;5.50;;;3.63;;
18789;SDS011;9523;42.650;23.386;2023-08-30T11:23:53;4.47;;;3.33;;
18789;SDS011;9523;42.650;23.386;2023-08-30T11:26:22;4.10;;;3.38;;
18789;SDS011;9523;42.650;23.386;2023-08-30T11:28:50;6.18;;;3.40;;
18789;SDS011;9523;42.650;23.386;2023-08-30T11:31:18;3.63;;;3.10;;
18789;SDS011;9523;42.650;23.386;2023-08-30T11:33:49;3.25;;;2.70;;
18789;SDS011;9523;42.650;23.386;2023-08-30T11:36:16;4.53;;;3.42;;
18789;SDS011;9523;42.650;23.386;2023-08-30T11:38:44;3.72;;;2.90;;
18789;SDS011;9523;42.650;23.386;2023-08-30T11:41:11;4.80;;;3.67;;
18789;SDS011;9523;42.650;23.386;2023-08-30T11:43:38;4.97;;;3.13;;
18789;SDS011;9523;42.650;23.386;2023-08-30T11:46:06;6.35;;;3.50;;
18789;SDS011;9523;42.650;23.386;2023-08-30T11:48:34;3.97;;;3.15;;
18789;SDS011;9523;42.650;23.386;2023-08-30T11:51:01;4.18;;;3.28;;
18789;SDS011;9523;42.650;23.386;2023-08-30T11:53:27;3.33;;;2.90;;
18789;SDS011;9523;42.650;23.386;2023-08-30T11:55:54;3.50;;;3.03;;
18789;SDS011;9523;42.650;23.386;2023-08-30T11:58:21;5.40;;;3.17;;
18789;SDS011;9523;42.650;23.386;2023-08-30T12:00:48;5.50;;;3.63;;
18789;SDS011;9523;42.650;23.386;2023-08-30T12:03:17;4.22;;;3.47;;
18789;SDS011;9523;42.650;23.386;2023-08-30T12:05:44;3.85;;;3.20;;
18789;SDS011;9523;42.650;23.386;2023-08-30T12:08:17;4.55;;;3.45;;
18789;SDS011;9523;42.650;23.386;2023-08-30T12:10:43;3.88;;;3.40;;
18789;SDS011;9523;42.650;23.386;2023-08-30T12:13:19;5.72;;;3.40;;
18789;SDS011;9523;42.650;23.386;2023-08-30T12:15:45;5.25;;;3.65;;
18789;SDS011;9523;42.650;23.386;2023-08-30T12:18:12;5.18;;;3.40;;
18789;SDS011;9523;42.650;23.386;2023-08-30T12:20:40;5.97;;;3.10;;
18789;SDS011;9523;42.650;23.386;2023-08-30T12:23:20;4.45;;;3.15;;
18789;SDS011;9523;42.650;23.386;2023-08-30T12:25:56;4.78;;;3.72;;
18789;SDS011;9523;42.650;23.386;2023-08-30T12:28:22;7.20;;;3.72;;
18789;SDS011;9523;42.650;23.386;2023-08-30T12:30:49;5.00;;;3.17;;
18789;SDS011;9523;42.650;23.386;2023-08-30T12:33:16;4.00;;;3.17;;
18789;SDS011;9523;42.650;23.386;2023-08-30T12:35:44;4.22;;;3.33;;
18789;SDS011;9523;42.650;23.386;2023-08-30T12:38:11;4.88;;;3.45;;
18789;SDS011;9523;42.650;23.386;2023-08-30T12:40:42;4.88;;;3.75;;
18789;SDS011;9523;42.650;23.386;2023-08-30T12:43:08;5.30;;;3.97;;
18789;SDS011;9523;42.650;23.386;2023-08-30T12:45:35;4.82;;;3.63;;
18789;SDS011;9523;42.650;23.386;2023-08-30T12:48:02;6.05;;;3.97;;
18789;SDS011;9523;42.650;23.386;2023-08-30T12:50:29;4.78;;;3.83;;
18789;SDS011;9523;42.650;23.386;2023-08-30T12:52:56;4.40;;;3.50;;
18789;SDS011;9523;42.650;23.386;2023-08-30T12:55:23;4.68;;;3.58;;
18789;SDS011;9523;42.650;23.386;2023-08-30T12:57:49;6.47;;;4.25;;
18789;SDS011;9523;42.650;23.386;2023-08-30T13:00:16;5.03;;;3.53;;
18789;SDS011;9523;42.650;23.386;2023-08-30T13:02:42;5.53;;;4.10;;
18789;SDS011;9523;42.650;23.386;2023-08-30T13:05:09;5.32;;;3.80;;
18789;SDS011;9523;42.650;23.386;2023-08-30T13:07:36;5.10;;;4.22;;
18789;SDS011;9523;42.650;23.386;2023-08-30T13:10:06;5.50;;;4.10;;
18789;SDS011;9523;42.650;23.386;2023-08-30T13:12:32;6.35;;;4.20;;
18789;SDS011;9523;42.650;23.386;2023-08-30T13:14:59;4.72;;;4.10;;
18789;SDS011;9523;42.650;23.386;2023-08-30T13:17:26;5.78;;;4.22;;
18789;SDS011;9523;42.650;23.386;2023-08-30T13:19:52;17.55;;;10.77;;
18789;SDS011;9523;42.650;23.386;2023-08-30T13:22:19;9.88;;;7.35;;
18789;SDS011;9523;42.650;23.386;2023-08-30T13:24:45;7.30;;;4.80;;
18789;SDS011;9523;42.650;23.386;2023-08-30T13:27:14;4.65;;;3.75;;
18789;SDS011;9523;42.650;23.386;2023-08-30T13:29:40;4.93;;;3.83;;
18789;SDS011;9523;42.650;23.386;2023-08-30T13:32:07;5.20;;;4.30;;
18789;SDS011;9523;42.650;23.386;2023-08-30T13:34:33;7.35;;;4.07;;
18789;SDS011;9523;42.650;23.386;2023-08-30T13:37:00;6.40;;;3.70;;
18789;SDS011;9523;42.650;23.386;2023-08-30T13:39:26;5.10;;;4.15;;
18789;SDS011;9523;42.650;23.386;2023-08-30T13:41:53;4.70;;;3.78;;
18789;SDS011;9523;42.650;23.386;2023-08-30T13:44:21;5.47;;;3.90;;
18789;SDS011;9523;42.650;23.386;2023-08-30T13:46:49;4.63;;;3.83;;
18789;SDS011;9523;42.650;23.386;2023-08-30T13:49:16;5.63;;;3.75;;
18789;SDS011;9523;42.650;23.386;2023-08-30T13:51:43;5.10;;;4.03;;
18789;SDS011;9523;42.650;23.386;2023-08-30T13:54:10;5.43;;;4.25;;
18789;SDS011;9523;42.650;23.386;2023-08-30T13:56:39;10.27;;;6.47;;
18789;SDS011;9523;42.650;23.386;2023-08-30T13:59:06;7.43;;;4.47;;
18789;SDS011;9523;42.650;23.386;2023-08-30T14:01:34;4.20;;;3.70;;
18789;SDS011;9523;42.650;23.386;2023-08-30T14:04:01;6.60;;;3.60;;
18789;SDS011;9523;42.650;23.386;2023-08-30T14:06:29;4.97;;;3.70;;
18789;SDS011;9523;42.650;23.386;2023-08-30T14:08:56;5.53;;;3.72;;
18789;SDS011;9523;42.650;23.386;2023-08-30T14:11:22;5.68;;;3.72;;
18789;SDS011;9523;42.650;23.386;2023-08-30T14:13:49;6.38;;;4.03;;
18789;SDS011;9523;42.650;23.386;2023-08-30T14:16:15;5.43;;;4.05;;
18789;SDS011;9523;42.650;23.386;2023-08-30T14:18:44;4.38;;;3.00;;
18789;SDS011;9523;42.650;23.386;2023-08-30T14:21:10;5.93;;;3.35;;
18789;SDS011;9523;42.650;23.386;2023-08-30T14:23:38;5.20;;;2.95;;
18789;SDS011;9523;42.650;23.386;2023-08-30T14:26:05;4.53;;;2.83;;
18789;SDS011;9523;42.650;23.386;2023-08-30T14:28:34;3.83;;;2.47;;
18789;SDS011;9523;42.650;23.386;2023-08-30T14:31:01;4.43;;;2.63;;
18789;SDS011;9523;42.650;23.386;2023-08-30T14:33:29;3.20;;;2.55;;
18789;SDS011;9523;42.650;23.386;2023-08-30T14:35:56;3.72;;;2.30;;
18789;SDS011;9523;42.650;23.386;2023-08-30T14:38:23;4.63;;;2.58;;
18789;SDS011;9523;42.650;23.386;2023-08-30T14:40:54;3.20;;;2.30;;
18789;SDS011;9523;42.650;23.386;2023-08-30T14:43:20;5.20;;;2.95;;
18789;SDS011;9523;42.650;23.386;2023-08-30T14:45:47;4.15;;;2.38;;
18789;SDS011;9523;42.650;23.386;2023-08-30T14:48:13;2.78;;;1.92;;
18789;SDS011;9523;42.650;23.386;2023-08-30T14:50:40;4.18;;;2.22;;